• Join FlightAware (Why Join?)
  • Login
  • US Flag 
08:42AM EDT


 

Airport Tracker/Info


-or-


 

Live Flight TrackerFlight Track Log ✈ UAL395 ✈ 18-Jun-2013 ✈ KORD - KSAN

Flight Track Log - Related Links

Times and Time Zones

All times are in EDT time to prevent confusion due to time zone crossing. See the UAL395 flight status page for this flight to view local times or setup timezone preferences in your user account.

Time Position Orientation Groundspeed Altitude Reporting Facility
EDT Latitude Longitude Course Direction KTS MPH feet Rate Location/Type
07:15PM 42.0000 -87.9333 254° West 165 190 1,800  Level Chicago TRACON
07:16PM 42.0333 -88.0000 304° West 215 247 3,200 2,100 Climbing Chicago TRACON
07:18PM 42.0489 -88.1411 278° West 260 299 7,500 2,580 Climbing Chicago Center
07:19PM 42.0267 -88.2369 253° West 276 318 10,200 1,800 Climbing Chicago Center
07:20PM 41.9942 -88.3403 247° West 293 337 11,300 1,620 Climbing Chicago Center
07:21PM 41.7744 -88.7497 254° West  Level FlightAware Approximate
07:21PM 41.9519 -88.4925 250° West 355 409 13,600  Level Chicago Center
07:22PM 41.9147 -88.6225 249° West 374 430 15,600 1,740 Climbing Chicago Center
07:23PM 41.8764 -88.7578 249° West 389 448 17,300 1,740 Climbing Chicago Center
07:24PM 41.8369 -88.8958 249° West 399 459 19,300 1,740 Climbing Chicago Center
07:25PM 41.7967 -89.0372 249° West 406 467 21,000 1,620 Climbing Chicago Center
07:26PM 41.7472 -89.2081 249° West 413 475 22,700 1,500 Climbing Chicago Center
07:27PM 41.7047 -89.3531 249° West 419 482 24,100 1,200 Climbing Chicago Center
07:28PM 41.6617 -89.4994 249° West 425 489 25,300 1,140 Climbing Chicago Center
07:29PM 41.6156 -89.6619 249° West 434 499 26,500 1,080 Climbing Chicago Center
07:30PM 41.5697 -89.8133 248° West 440 506 27,600 960 Climbing Chicago Center
07:31PM 41.5244 -89.9664 248° West 444 511 28,500 1,080 Climbing Chicago Center
07:32PM 41.4781 -90.1225 248° West 451 519 29,900 1,740 Climbing Chicago Center
07:34PM 41.4264 -90.2953 248° West 427 491 32,200 1,200 Climbing Chicago Center
07:35PM 41.3828 -90.4392 248° West 420 483 32,400 720 Climbing Chicago Center
07:36PM 41.3386 -90.5878 248° West 429 494 33,800 720 Climbing Chicago Center
07:37PM 41.2933 -90.7311 247° West 427 491 34,000 60 Climbing Chicago Center
07:38PM 41.2519 -90.8750 249° West 421 484 34,000  Level Chicago Center
07:39PM 41.2017 -91.0467 249° West 418 481 34,000  Level Chicago Center
07:40PM 41.1583 -91.1919 248° West 423 487 34,000  Level Chicago Center
07:41PM 41.1144 -91.3358 248° West 423 487 34,000 -60 Level Chicago Center
07:42PM 41.0714 -91.4817 249° West 425 489 33,900  Descending Chicago Center
07:43PM 41.0261 -91.6275 248° West 428 493 34,000  Climbing Chicago Center
07:44PM 40.9803 -91.7828 249° West 429 494 34,000  Level Chicago Center
07:45PM 40.9358 -91.9275 248° West 430 495 34,000  Level Chicago Center
07:46PM 40.8817 -92.1008 248° West 431 496 34,000  Level Chicago Center
07:47PM 40.8375 -92.2417 248° West 423 487 34,000  Level Chicago Center
07:48PM 40.8014 -92.3872 252° West 422 486 34,000  Level Chicago Center
07:49PM 40.7672 -92.5331 253° West 422 486 34,000 -120 Level Chicago Center
07:51PM 40.7108 -92.7922 254° West 417 480 33,800 -600 Descending Kansas City Center
07:52PM 40.6783 -92.9356 253° West 416 479 32,400 -900 Descending Kansas City Center
07:53PM 40.6286 -93.1056 249° West 420 483 32,000 -240 Descending Kansas City Center
07:54PM 40.5847 -93.2500 248° West 428 493 32,000  Level Kansas City Center
07:55PM 40.5450 -93.3950 250° West 428 493 32,000 -60 Level Kansas City Center
07:56PM 40.5072 -93.5369 251° West 420 483 31,900 -60 Descending Kansas City Center
07:57PM 40.4678 -93.6794 250° West 420 483 31,900  Level Kansas City Center
07:58PM 40.4233 -93.8542 252° West 425 489 32,000  Climbing Kansas City Center
07:59PM 40.3675 -93.9936 242° Southwest 434 499 32,000  Level Kansas City Center
08:00PM 40.3117 -94.1444 244° Southwest 432 497 32,000  Level Kansas City Center
08:01PM 40.2592 -94.2808 243° Southwest 435 501 32,000  Level Kansas City Center
08:02PM 40.1972 -94.4411 243° Southwest 442 509 32,000  Level Kansas City Center
08:03PM 40.1461 -94.5775 244° Southwest 439 505 32,000  Level Kansas City Center
08:04PM 40.0811 -94.7047 236° Southwest 446 513 32,000 -60 Level Kansas City Center
08:05PM 39.9867 -94.8364 227° Southwest 447 514 31,900 -60 Descending Kansas City Center
08:06PM 39.9075 -94.9500 228° Southwest 443 510 31,900  Level Kansas City Center
08:07PM 39.8153 -95.0817 228° Southwest 443 510 32,000  Climbing Kansas City Center
08:08PM 39.7364 -95.1944 228° Southwest 442 509 32,000 -60 Level Kansas City Center
08:09PM 39.6444 -95.3242 227° Southwest 441 507 31,900  Descending Kansas City Center
08:10PM 39.5603 -95.4317 225° Southwest 446 513 32,000  Climbing Kansas City Center
08:11PM 39.4628 -95.5572 225° Southwest 446 513 32,000  Level Kansas City Center
08:12PM 39.3789 -95.6647 225° Southwest 446 513 32,000  Level Kansas City Center
08:13PM 39.2839 -95.7944 227° Southwest 448 516 32,000  Level Kansas City Center
08:14PM 39.2075 -95.9122 230° Southwest 449 517 32,000 -60 Level Kansas City Center
08:15PM 39.1181 -96.0472 230° Southwest 446 513 31,900 -60 Descending Kansas City Center
08:17PM 39.0394 -96.1633 229° Southwest 450 518 31,900  Level Kansas City Center
08:18PM 38.9469 -96.3011 229° Southwest 456 525 32,000  Climbing Kansas City Center
08:19PM 38.8689 -96.4211 230° Southwest 458 527 32,000  Level Kansas City Center
08:20PM 38.7892 -96.5469 231° Southwest 454 522 32,000 -60 Level Kansas City Center
08:21PM 38.7039 -96.6800 231° Southwest 452 520 31,900 -60 Descending Kansas City Center
08:22PM 38.6283 -96.7994 231° Southwest 452 520 31,900  Level Kansas City Center
08:23PM 38.5503 -96.9231 231° Southwest 455 524 32,000  Climbing Kansas City Center
08:24PM 38.4781 -97.0536 235° Southwest 451 519 31,900  Descending Kansas City Center
08:25PM 38.3886 -97.2094 234° Southwest 452 520 32,000  Climbing Kansas City Center
08:26PM 38.3247 -97.3469 239° Southwest 451 519 31,900  Descending Kansas City Center
08:27PM 38.2644 -97.4881 241° Southwest 453 521 32,000  Climbing Kansas City Center
08:28PM 38.2067 -97.6311 243° Southwest 456 525 32,000 -60 Level Kansas City Center
08:29PM 38.1464 -97.7722 242° Southwest 453 521 31,900  Descending Kansas City Center
08:30PM 38.0828 -97.9239 242° Southwest 458 527 32,000  Climbing Kansas City Center
08:31PM 38.0292 -98.0719 245° Southwest 461 531 31,900  Descending Kansas City Center
08:32PM 37.9739 -98.2278 246° West 456 525 32,000  Climbing Kansas City Center
08:33PM 37.9239 -98.3725 246° West 452 520 32,000 -60 Level Kansas City Center
08:34PM 37.8750 -98.5169 247° West 449 517 31,900  Descending Kansas City Center
08:35PM 37.8242 -98.6639 246° West 455 524 32,000  Climbing Kansas City Center
08:36PM 37.7628 -98.8342 246° West 447 514 32,000 -60 Level Kansas City Center
08:37PM 37.7136 -98.9761 246° West 444 511 31,900 -60 Descending Kansas City Center
08:38PM 37.6628 -99.1189 246° West 445 512 31,900  Level Kansas City Center
08:39PM 37.6122 -99.2608 246° West 444 511 32,000  Climbing Kansas City Center
08:40PM 37.5622 -99.4022 246° West 443 510 32,000  Level Kansas City Center
08:41PM 37.5117 -99.5472 246° West 440 506 32,000  Level Kansas City Center
08:42PM 37.4558 -99.7036 246° West 437 503 32,000 -60 Level Kansas City Center
08:43PM 37.4092 -99.8361 246° West 435 501 31,900  Descending Kansas City Center
08:44PM 37.3511 -99.9925 245° Southwest 438 504 32,000  Climbing Kansas City Center
08:45PM 37.3011 -100.1217 244° Southwest 434 499 32,000  Level Kansas City Center
08:46PM 37.2506 -100.2464 243° Southwest 423 487 32,000  Level Kansas City Center
08:47PM 37.1761 -100.3847 236° Southwest 425 489 32,000  Level Kansas City Center
08:48PM 37.1111 -100.5058 236° Southwest 434 499 32,000  Level Kansas City Center
08:49PM 37.0392 -100.6461 237° Southwest 430 495 32,000  Level Kansas City Center
08:50PM 36.9792 -100.7664 238° Southwest 425 489 32,000  Level Kansas City Center
08:52PM 36.9061 -100.9086 237° Southwest 431 496 32,000  Level Kansas City Center
08:53PM 36.8447 -101.0322 238° Southwest 435 501 32,000  Level Kansas City Center
08:54PM 36.7839 -101.1550 238° Southwest 434 499 32,000  Level Kansas City Center
08:55PM 36.7297 -101.3006 245° Southwest 417 480 32,000 -60 Level Kansas City Center
08:56PM 36.6936 -101.4297 251° West 412 474 31,900 -60 Descending Kansas City Center
08:57PM 36.6511 -101.5772 250° West 408 470 31,900  Level Kansas City Center
08:57PM 36.6336 -101.6408 251° West 406 467 31,900 60 Level Albuquerque Center
08:58PM 36.5983 -101.7689 251° West 406 467 32,000  Climbing Albuquerque Center
08:59PM 36.5578 -101.9133 251° West 415 478 32,000 -60 Level Albuquerque Center
09:00PM 36.5075 -102.0478 245° Southwest 426 490 31,900  Descending Albuquerque Center
09:01PM 36.4553 -102.1800 244° Southwest 429 494 32,000  Climbing Albuquerque Center
09:02PM 36.4003 -102.3106 242° Southwest 429 494 32,000  Level Albuquerque Center
09:03PM 36.3369 -102.4678 243° Southwest 427 491 32,000  Level Albuquerque Center
09:04PM 36.2833 -102.5981 243° Southwest 426 490 32,000  Level Albuquerque Center
09:05PM 36.2292 -102.7322 243° Southwest 434 499 32,000 -60 Level Albuquerque Center
09:06PM 36.1781 -102.8642 244° Southwest 430 495 31,900 -60 Descending Albuquerque Center
09:07PM 36.1269 -102.9922 244° Southwest 429 494 31,900  Level Albuquerque Center
09:08PM 36.0794 -103.1533 250° West 427 491 32,000  Climbing Albuquerque Center
09:09PM 36.0514 -103.2975 257° West 427 491 32,000  Level Albuquerque Center
09:11PM 36.0206 -103.4394 255° West 426 490 32,000 -60 Level Albuquerque Center
09:12PM 35.9903 -103.5789 255° West 422 486 31,900 -60 Descending Albuquerque Center
09:13PM 35.9606 -103.7186 255° West 419 482 31,900  Level Albuquerque Center
09:14PM 35.9303 -103.8567 255° West 417 480 32,000  Climbing Albuquerque Center
09:15PM 35.8994 -104.0019 255° West 429 494 32,000  Level Albuquerque Center
09:16PM 35.8683 -104.1431 255° West 428 493 32,000  Level Albuquerque Center
09:17PM 35.8364 -104.2858 255° West 430 495 32,000  Level Albuquerque Center
09:18PM 35.8044 -104.4294 255° West 432 497 32,000  Level Albuquerque Center
09:19PM 35.7678 -104.5958 255° West 432 497 32,000  Level Albuquerque Center
09:20PM 35.7353 -104.7392 254° West 432 497 32,000  Level Albuquerque Center
09:21PM 35.7039 -104.8814 255° West 430 495 32,000  Level Albuquerque Center
09:22PM 35.6719 -105.0214 254° West 425 489 32,000 -60 Level Albuquerque Center
09:23PM 35.6392 -105.1603 254° West 422 486 31,900 -60 Descending Albuquerque Center
09:24PM 35.6075 -105.2989 254° West 421 484 31,900  Level Albuquerque Center
09:25PM 35.5756 -105.4378 254° West 420 483 31,900  Level Albuquerque Center
09:26PM 35.5428 -105.5767 254° West 420 483 32,000  Climbing Albuquerque Center
09:27PM 35.5114 -105.7156 255° West 421 484 32,000 -60 Level Albuquerque Center
09:28PM 35.4728 -105.8758 254° West 419 482 31,900 -60 Descending Albuquerque Center
09:29PM 35.4461 -105.9903 254° West 419 482 31,900  Level Albuquerque Center
09:30PM 35.4156 -106.1289 255° West 422 486 32,000  Climbing Albuquerque Center
09:31PM 35.3764 -106.2958 254° West 425 489 32,000 -60 Level Albuquerque Center
09:32PM 35.3422 -106.4322 253° West 422 486 31,900  Descending Albuquerque Center
09:33PM 35.3078 -106.5744 254° West 427 491 32,000  Climbing Albuquerque Center
09:34PM 35.2778 -106.7067 255° West 424 488 32,000  Level Albuquerque Center
09:35PM 35.2272 -106.8558 248° West 423 487 32,000 -60 Level Albuquerque Center
09:36PM 35.1814 -106.9819 246° West 422 486 31,900 -60 Descending Albuquerque Center
09:37PM 35.1303 -107.1264 247° West 414 476 31,900  Level Albuquerque Center
09:38PM 35.0839 -107.2519 246° West 426 490 31,900  Level Albuquerque Center
09:39PM 35.0364 -107.3811 246° West 424 488 32,000  Climbing Albuquerque Center
09:40PM 34.9900 -107.5097 246° West 417 480 32,000  Level Albuquerque Center
09:41PM 34.9436 -107.6383 246° West 416 479 32,000 -60 Level Albuquerque Center
09:42PM 34.8964 -107.7675 246° West 417 480 31,900 -60 Descending Albuquerque Center
09:43PM 34.8436 -107.9131 246° West 414 476 31,900  Level Albuquerque Center
09:44PM 34.8028 -108.0236 246° West 415 478 32,000  Climbing Albuquerque Center
09:45PM 34.7467 -108.1778 246° West 416 479 32,000  Level Albuquerque Center
09:46PM 34.6983 -108.3053 245° Southwest 416 479 32,000  Level Albuquerque Center
09:47PM 34.6506 -108.4328 246° West 415 478 32,000  Level Albuquerque Center
09:48PM 34.6003 -108.5678 246° West 414 476 32,000  Level Albuquerque Center
09:49PM 34.5553 -108.6883 246° West 412 474 32,000  Level Albuquerque Center
09:50PM 34.5011 -108.8292 245° Southwest 411 473 32,000  Level Albuquerque Center
09:51PM 34.4544 -108.9506 245° Southwest 412 474 32,000  Level Albuquerque Center
09:53PM 34.4089 -109.0700 245° Southwest 410 472 32,000 -60 Level Albuquerque Center
09:54PM 34.3553 -109.2103 245° Southwest 410 472 31,900  Descending Albuquerque Center
09:55PM 34.3083 -109.3314 245° Southwest 412 474 32,000  Climbing Albuquerque Center
09:56PM 34.2544 -109.4739 245° Southwest 415 478 32,000  Level Albuquerque Center
09:57PM 34.2081 -109.5944 245° Southwest 413 475 32,000 -60 Level Albuquerque Center
09:58PM 34.1617 -109.7139 245° Southwest 412 474 31,900  Descending Albuquerque Center
09:59PM 34.1069 -109.8544 245° Southwest 412 474 32,000  Climbing Albuquerque Center
10:00PM 34.0600 -109.9747 245° Southwest 414 476 32,000  Level Albuquerque Center
10:01PM 34.0161 -110.0853 244° Southwest 411 473 32,000  Level Albuquerque Center
10:02PM 33.9558 -110.2367 244° Southwest 418 481 32,000  Level Albuquerque Center
10:03PM 33.9075 -110.3592 245° Southwest 413 475 32,000 -60 Level Albuquerque Center
10:04PM 33.8611 -110.4753 244° Southwest 410 472 31,900  Descending Albuquerque Center
10:05PM 33.8128 -110.5981 245° Southwest 408 470 32,000  Climbing Albuquerque Center
10:06PM 33.7628 -110.7222 244° Southwest 410 472 32,000  Level Albuquerque Center
10:07PM 33.7039 -110.8694 244° Southwest 409 471 32,000 -60 Level Albuquerque Center
10:08PM 33.6547 -110.9925 244° Southwest 408 470 31,900  Descending Albuquerque Center
10:09PM 33.6064 -111.1147 245° Southwest 408 470 32,000  Climbing Albuquerque Center
10:10PM 33.5556 -111.2358 243° Southwest 406 467 32,000 -60 Level Albuquerque Center
10:11PM 33.5064 -111.3572 244° Southwest 403 464 31,900  Descending Albuquerque Center
10:12PM 33.4564 -111.4786 244° Southwest 404 465 32,000  Climbing Albuquerque Center
10:13PM 33.4061 -111.6003 244° Southwest 405 466 32,000  Level Albuquerque Center
10:14PM 33.3550 -111.7233 244° Southwest 409 471 32,000  Level Albuquerque Center
10:15PM 33.3192 -111.8517 252° West 406 467 32,000  Level Albuquerque Center
10:16PM 33.3017 -111.9847 261° West 405 466 32,000  Level Albuquerque Center
10:17PM 33.2825 -112.1169 260° West 404 465 32,000 -60 Level Albuquerque Center
10:18PM 33.2633 -112.2489 260° West 403 464 31,900  Descending Albuquerque Center
10:19PM 33.2400 -112.4081 260° West 403 464 32,000  Climbing Albuquerque Center
10:20PM 33.2203 -112.5403 260° West 405 466 32,000 -60 Level Albuquerque Center
10:21PM 33.2017 -112.6767 261° West 403 464 31,900 -60 Descending Albuquerque Center
10:23PM 33.1628 -112.9392 260° West 404 465 31,900  Level Albuquerque Center
10:24PM 33.1417 -113.0714 259° West 406 467 31,900  Level Albuquerque Center
10:25PM 33.1225 -113.2033 260° West 406 467 31,900  Level Albuquerque Center
10:26PM 33.1019 -113.3347 259° West 406 467 31,900  Level Albuquerque Center
10:27PM 33.0825 -113.4669 260° West 407 468 31,900  Level Albuquerque Center
10:28PM 33.0572 -113.6247 259° West 407 468 31,900  Level Albuquerque Center
10:29PM 33.0369 -113.7544 259° West 404 465 31,900  Level Albuquerque Center
10:30PM 33.0158 -113.8950 260° West 404 465 31,900  Level Los Angeles Center
10:31PM 32.9956 -114.0272 260° West 407 468 31,900 -180 Level Los Angeles Center
10:32PM 32.9839 -114.1492 264° West 404 465 31,600 -600 Descending Albuquerque Center
10:33PM 32.9717 -114.2800 264° West 401 461 30,700 -960 Descending Albuquerque Center
10:34PM 32.9608 -114.4081 264° West 394 453 29,700 -1,080 Descending Albuquerque Center
10:35PM 32.9469 -114.5583 264° West 386 444 28,500 -1,140 Descending Albuquerque Center
10:37PM 32.9336 -114.6925 263° West 379 436 27,400 -1,020 Descending Los Angeles Center
10:38PM 32.9208 -114.8167 263° West 379 436 26,400 -1,020 Descending Los Angeles Center
10:39PM 32.9083 -114.9397 263° West 377 434 25,400 -960 Descending Los Angeles Center
10:40PM 32.8964 -115.0631 263° West 377 434 24,500 -780 Descending Los Angeles Center
10:41PM 32.8847 -115.1839 263° West 370 426 23,900 -300 Descending Los Angeles Center
10:42PM 32.8714 -115.3056 263° West 371 427 23,900 -360 Level Los Angeles Center
10:43PM 32.8597 -115.4261 263° West 368 423 23,200 -900 Descending Los Angeles Center
10:44PM 32.8461 -115.5461 262° West 366 421 22,100 -1,080 Descending Los Angeles Center
10:45PM 32.8314 -115.6872 263° West 358 412 21,000 -1,020 Descending Los Angeles Center
10:46PM 32.8194 -115.8031 263° West 354 407 20,000 -1,020 Descending Los Angeles Center
10:47PM 32.8072 -115.9175 263° West 350 403 19,000 -1,680 Descending Los Angeles Center
10:48PM 32.7953 -116.0328 263° West 351 404 16,600 -2,160 Descending Los Angeles Center
10:49PM 32.7831 -116.1472 263° West 349 402 14,600 -1,800 Descending Los Angeles Center
10:50PM 32.7700 -116.2594 262° West 343 395 12,900 -1,740 Descending Los Angeles Center
10:51PM 32.7569 -116.3564 261° West 301 346 11,100 -1,440 Descending Los Angeles Center
10:52PM 32.7433 -116.4494 260° West 287 330 10,000 -720 Descending Los Angeles Center
10:53PM 32.7294 -116.5414 260° West 282 325 9,700 -1,020 Descending Los Angeles Center
10:54PM 32.7142 -116.6497 261° West 277 319 8,000 -1,800 Descending Los Angeles Center
10:55PM 32.7100 -116.7381 267° West 268 308 6,100 -960 Descending Los Angeles Center
10:56PM 32.7067 -116.8233 267° West 260 299 6,100 -720 Level Los Angeles Center
10:57PM 32.6853 -116.8908 249° West 224 258 4,700 -1,200 Descending Los Angeles Center
10:58PM 32.6778 -116.9594 263° West 216 249 3,700 -960 Descending Los Angeles Center
10:59PM 32.6908 -117.0136 286° West 176 203 2,800 -720 Descending Los Angeles Center
11:00PM 32.7042 -117.0664 287° West 167 192 2,300 -540 Descending Los Angeles Center